sensor_id;sensor_type;location;lat;lon;timestamp;temperature;humidity
17728;DHT22;8984;49.268;12.302;2023-08-30T00:00:31;16.60;99.90
17728;DHT22;8984;49.268;12.302;2023-08-30T00:02:58;16.70;99.90
17728;DHT22;8984;49.268;12.302;2023-08-30T00:05:25;16.60;99.90
17728;DHT22;8984;49.268;12.302;2023-08-30T00:07:53;16.60;99.90
17728;DHT22;8984;49.268;12.302;2023-08-30T00:10:21;16.60;99.90
17728;DHT22;8984;49.268;12.302;2023-08-30T00:12:48;16.70;99.90
17728;DHT22;8984;49.268;12.302;2023-08-30T00:15:15;16.60;99.90
17728;DHT22;8984;49.268;12.302;2023-08-30T00:17:42;16.60;99.90
17728;DHT22;8984;49.268;12.302;2023-08-30T00:20:09;16.60;99.90
17728;DHT22;8984;49.268;12.302;2023-08-30T00:22:37;16.50;99.90
17728;DHT22;8984;49.268;12.302;2023-08-30T00:25:05;16.40;99.90
17728;DHT22;8984;49.268;12.302;2023-08-30T00:27:33;16.50;99.90
17728;DHT22;8984;49.268;12.302;2023-08-30T00:30:00;16.50;99.90
17728;DHT22;8984;49.268;12.302;2023-08-30T00:32:27;16.50;99.90
17728;DHT22;8984;49.268;12.302;2023-08-30T00:34:54;16.50;99.90
17728;DHT22;8984;49.268;12.302;2023-08-30T00:37:21;16.40;99.90
17728;DHT22;8984;49.268;12.302;2023-08-30T00:39:47;16.40;99.90
17728;DHT22;8984;49.268;12.302;2023-08-30T00:42:14;16.50;99.90
17728;DHT22;8984;49.268;12.302;2023-08-30T00:44:42;16.40;99.90
17728;DHT22;8984;49.268;12.302;2023-08-30T00:47:09;16.40;99.90
17728;DHT22;8984;49.268;12.302;2023-08-30T00:49:36;16.40;99.90
17728;DHT22;8984;49.268;12.302;2023-08-30T00:52:07;16.40;99.90
17728;DHT22;8984;49.268;12.302;2023-08-30T00:54:35;16.40;99.90
17728;DHT22;8984;49.268;12.302;2023-08-30T00:57:02;16.40;99.90
17728;DHT22;8984;49.268;12.302;2023-08-30T00:59:32;16.40;99.90
17728;DHT22;8984;49.268;12.302;2023-08-30T01:02:04;16.40;99.90
17728;DHT22;8984;49.268;12.302;2023-08-30T01:04:31;16.40;99.90
17728;DHT22;8984;49.268;12.302;2023-08-30T01:06:58;16.40;99.90
17728;DHT22;8984;49.268;12.302;2023-08-30T01:09:25;16.30;99.90
17728;DHT22;8984;49.268;12.302;2023-08-30T01:11:57;16.30;99.90
17728;DHT22;8984;49.268;12.302;2023-08-30T01:14:31;16.30;99.90
17728;DHT22;8984;49.268;12.302;2023-08-30T01:17:01;16.40;99.90
17728;DHT22;8984;49.268;12.302;2023-08-30T01:19:39;16.30;99.90
17728;DHT22;8984;49.268;12.302;2023-08-30T01:22:14;16.30;99.90
17728;DHT22;8984;49.268;12.302;2023-08-30T01:24:48;16.30;99.90
17728;DHT22;8984;49.268;12.302;2023-08-30T01:27:17;16.20;99.90
17728;DHT22;8984;49.268;12.302;2023-08-30T01:29:46;16.20;99.90
17728;DHT22;8984;49.268;12.302;2023-08-30T01:32:14;16.20;99.90
17728;DHT22;8984;49.268;12.302;2023-08-30T01:34:43;16.20;99.90
17728;DHT22;8984;49.268;12.302;2023-08-30T01:37:12;16.20;99.90
17728;DHT22;8984;49.268;12.302;2023-08-30T01:39:40;16.30;99.90
17728;DHT22;8984;49.268;12.302;2023-08-30T01:42:09;16.20;99.90
17728;DHT22;8984;49.268;12.302;2023-08-30T01:44:38;16.20;99.90
17728;DHT22;8984;49.268;12.302;2023-08-30T01:47:07;16.30;99.90
17728;DHT22;8984;49.268;12.302;2023-08-30T01:49:36;16.20;99.90
17728;DHT22;8984;49.268;12.302;2023-08-30T01:52:06;16.20;99.90
17728;DHT22;8984;49.268;12.302;2023-08-30T01:54:33;16.20;99.90
17728;DHT22;8984;49.268;12.302;2023-08-30T01:57:00;16.20;99.90
17728;DHT22;8984;49.268;12.302;2023-08-30T01:59:27;16.20;99.90
17728;DHT22;8984;49.268;12.302;2023-08-30T02:01:55;16.20;99.90
17728;DHT22;8984;49.268;12.302;2023-08-30T02:04:23;16.20;99.90
17728;DHT22;8984;49.268;12.302;2023-08-30T02:06:54;16.20;99.90
17728;DHT22;8984;49.268;12.302;2023-08-30T02:09:28;16.20;99.90
17728;DHT22;8984;49.268;12.302;2023-08-30T02:12:00;16.20;99.90
17728;DHT22;8984;49.268;12.302;2023-08-30T02:14:30;16.20;99.90
17728;DHT22;8984;49.268;12.302;2023-08-30T02:16:58;16.20;99.90
17728;DHT22;8984;49.268;12.302;2023-08-30T02:19:25;16.20;99.90
17728;DHT22;8984;49.268;12.302;2023-08-30T02:21:52;16.10;99.90
17728;DHT22;8984;49.268;12.302;2023-08-30T02:24:19;16.10;99.90
17728;DHT22;8984;49.268;12.302;2023-08-30T02:26:46;16.10;99.90
17728;DHT22;8984;49.268;12.302;2023-08-30T02:29:13;16.10;99.90
17728;DHT22;8984;49.268;12.302;2023-08-30T02:31:40;16.10;99.90
17728;DHT22;8984;49.268;12.302;2023-08-30T02:34:08;16.20;99.90
17728;DHT22;8984;49.268;12.302;2023-08-30T02:36:35;16.20;99.90
17728;DHT22;8984;49.268;12.302;2023-08-30T02:39:02;16.20;99.90
17728;DHT22;8984;49.268;12.302;2023-08-30T02:41:29;16.20;99.90
17728;DHT22;8984;49.268;12.302;2023-08-30T02:43:56;16.20;99.90
17728;DHT22;8984;49.268;12.302;2023-08-30T02:46:23;16.20;99.90
17728;DHT22;8984;49.268;12.302;2023-08-30T02:48:49;16.20;99.90
17728;DHT22;8984;49.268;12.302;2023-08-30T02:51:18;16.20;99.90
17728;DHT22;8984;49.268;12.302;2023-08-30T02:53:44;16.20;99.90
17728;DHT22;8984;49.268;12.302;2023-08-30T02:56:11;16.20;99.90
17728;DHT22;8984;49.268;12.302;2023-08-30T02:58:38;16.30;99.90
17728;DHT22;8984;49.268;12.302;2023-08-30T03:01:05;16.20;99.90
17728;DHT22;8984;49.268;12.302;2023-08-30T03:03:32;16.20;99.90
17728;DHT22;8984;49.268;12.302;2023-08-30T03:06:00;16.20;99.90
17728;DHT22;8984;49.268;12.302;2023-08-30T03:08:29;16.20;99.90
17728;DHT22;8984;49.268;12.302;2023-08-30T03:11:06;16.20;99.90
17728;DHT22;8984;49.268;12.302;2023-08-30T03:13:33;16.20;99.90
17728;DHT22;8984;49.268;12.302;2023-08-30T03:16:00;16.20;99.90
17728;DHT22;8984;49.268;12.302;2023-08-30T03:18:27;16.30;99.90
17728;DHT22;8984;49.268;12.302;2023-08-30T03:21:00;16.30;99.90
17728;DHT22;8984;49.268;12.302;2023-08-30T03:23:29;16.30;99.90
17728;DHT22;8984;49.268;12.302;2023-08-30T03:25:57;16.20;99.90
17728;DHT22;8984;49.268;12.302;2023-08-30T03:28:24;16.20;99.90
17728;DHT22;8984;49.268;12.302;2023-08-30T03:30:50;16.30;99.90
17728;DHT22;8984;49.268;12.302;2023-08-30T03:33:17;16.20;99.90
17728;DHT22;8984;49.268;12.302;2023-08-30T03:35:44;16.40;99.90
17728;DHT22;8984;49.268;12.302;2023-08-30T03:38:11;16.40;99.90
17728;DHT22;8984;49.268;12.302;2023-08-30T03:40:39;16.30;99.90
17728;DHT22;8984;49.268;12.302;2023-08-30T03:43:06;16.20;99.90
17728;DHT22;8984;49.268;12.302;2023-08-30T03:45:35;16.20;99.90
17728;DHT22;8984;49.268;12.302;2023-08-30T03:48:02;16.20;99.90
17728;DHT22;8984;49.268;12.302;2023-08-30T03:50:29;16.20;99.90
17728;DHT22;8984;49.268;12.302;2023-08-30T03:52:56;16.20;99.90
17728;DHT22;8984;49.268;12.302;2023-08-30T03:55:23;16.20;99.90
17728;DHT22;8984;49.268;12.302;2023-08-30T03:57:51;16.20;99.90
17728;DHT22;8984;49.268;12.302;2023-08-30T04:00:18;16.20;99.90
17728;DHT22;8984;49.268;12.302;2023-08-30T04:02:45;16.20;99.90
17728;DHT22;8984;49.268;12.302;2023-08-30T04:05:12;16.20;99.90
17728;DHT22;8984;49.268;12.302;2023-08-30T04:07:39;16.20;99.90
17728;DHT22;8984;49.268;12.302;2023-08-30T04:10:07;16.20;99.90
17728;DHT22;8984;49.268;12.302;2023-08-30T04:12:34;16.20;99.90
17728;DHT22;8984;49.268;12.302;2023-08-30T04:15:02;16.20;99.90
17728;DHT22;8984;49.268;12.302;2023-08-30T04:17:29;16.20;99.90
17728;DHT22;8984;49.268;12.302;2023-08-30T04:19:56;16.20;99.90
17728;DHT22;8984;49.268;12.302;2023-08-30T04:22:23;16.20;99.90
17728;DHT22;8984;49.268;12.302;2023-08-30T04:24:50;16.20;99.90
17728;DHT22;8984;49.268;12.302;2023-08-30T04:27:16;16.20;99.90
17728;DHT22;8984;49.268;12.302;2023-08-30T04:29:43;16.20;99.90
17728;DHT22;8984;49.268;12.302;2023-08-30T04:32:12;16.20;99.90
17728;DHT22;8984;49.268;12.302;2023-08-30T04:34:38;16.20;99.90
17728;DHT22;8984;49.268;12.302;2023-08-30T04:37:05;16.20;99.90
17728;DHT22;8984;49.268;12.302;2023-08-30T04:39:32;16.20;99.90
17728;DHT22;8984;49.268;12.302;2023-08-30T04:41:59;16.20;99.90
17728;DHT22;8984;49.268;12.302;2023-08-30T04:44:28;16.20;99.90
17728;DHT22;8984;49.268;12.302;2023-08-30T04:46:55;16.20;99.90
17728;DHT22;8984;49.268;12.302;2023-08-30T04:49:23;16.20;99.90
17728;DHT22;8984;49.268;12.302;2023-08-30T04:51:50;16.20;99.90
17728;DHT22;8984;49.268;12.302;2023-08-30T04:54:17;16.20;99.90
17728;DHT22;8984;49.268;12.302;2023-08-30T04:56:44;16.30;99.90
17728;DHT22;8984;49.268;12.302;2023-08-30T04:59:13;16.30;99.90
17728;DHT22;8984;49.268;12.302;2023-08-30T05:01:39;16.30;99.90
17728;DHT22;8984;49.268;12.302;2023-08-30T05:04:09;16.30;99.90
17728;DHT22;8984;49.268;12.302;2023-08-30T05:06:37;16.40;99.90
17728;DHT22;8984;49.268;12.302;2023-08-30T05:09:04;16.30;99.90
17728;DHT22;8984;49.268;12.302;2023-08-30T05:11:31;16.40;99.90
17728;DHT22;8984;49.268;12.302;2023-08-30T05:13:58;16.30;99.90
17728;DHT22;8984;49.268;12.302;2023-08-30T05:16:25;16.30;99.90
17728;DHT22;8984;49.268;12.302;2023-08-30T05:18:52;16.40;99.90
17728;DHT22;8984;49.268;12.302;2023-08-30T05:21:19;16.50;99.90
17728;DHT22;8984;49.268;12.302;2023-08-30T05:23:47;16.40;99.90
17728;DHT22;8984;49.268;12.302;2023-08-30T05:26:14;16.50;99.90
17728;DHT22;8984;49.268;12.302;2023-08-30T05:28:42;16.50;99.90
17728;DHT22;8984;49.268;12.302;2023-08-30T05:31:09;16.50;99.90
17728;DHT22;8984;49.268;12.302;2023-08-30T05:33:35;16.60;99.90
17728;DHT22;8984;49.268;12.302;2023-08-30T05:36:03;16.60;99.90
17728;DHT22;8984;49.268;12.302;2023-08-30T05:38:29;16.60;99.90
17728;DHT22;8984;49.268;12.302;2023-08-30T05:40:57;16.60;99.90
17728;DHT22;8984;49.268;12.302;2023-08-30T05:43:24;16.70;99.90
17728;DHT22;8984;49.268;12.302;2023-08-30T05:45:51;16.70;99.90
17728;DHT22;8984;49.268;12.302;2023-08-30T05:48:18;16.80;99.90
17728;DHT22;8984;49.268;12.302;2023-08-30T05:50:45;16.80;99.90
17728;DHT22;8984;49.268;12.302;2023-08-30T05:53:11;16.90;99.90
17728;DHT22;8984;49.268;12.302;2023-08-30T05:55:38;17.00;99.90
17728;DHT22;8984;49.268;12.302;2023-08-30T05:58:06;17.00;99.90
17728;DHT22;8984;49.268;12.302;2023-08-30T06:00:33;17.10;99.90
17728;DHT22;8984;49.268;12.302;2023-08-30T06:03:00;17.00;99.90
17728;DHT22;8984;49.268;12.302;2023-08-30T06:05:28;17.10;99.90
17728;DHT22;8984;49.268;12.302;2023-08-30T06:07:55;17.20;99.90
17728;DHT22;8984;49.268;12.302;2023-08-30T06:10:22;17.30;99.90
17728;DHT22;8984;49.268;12.302;2023-08-30T06:12:49;17.30;99.90
17728;DHT22;8984;49.268;12.302;2023-08-30T06:15:18;17.30;99.90
17728;DHT22;8984;49.268;12.302;2023-08-30T06:17:45;17.30;99.90
17728;DHT22;8984;49.268;12.302;2023-08-30T06:20:12;17.40;99.90
17728;DHT22;8984;49.268;12.302;2023-08-30T06:22:39;17.50;99.90
17728;DHT22;8984;49.268;12.302;2023-08-30T06:25:08;17.60;99.90
17728;DHT22;8984;49.268;12.302;2023-08-30T06:27:41;17.60;99.90
17728;DHT22;8984;49.268;12.302;2023-08-30T06:30:09;17.50;99.90
17728;DHT22;8984;49.268;12.302;2023-08-30T06:32:38;17.50;99.90
17728;DHT22;8984;49.268;12.302;2023-08-30T06:35:05;17.70;99.90
17728;DHT22;8984;49.268;12.302;2023-08-30T06:37:32;17.60;99.90
17728;DHT22;8984;49.268;12.302;2023-08-30T06:39:59;17.70;99.90
17728;DHT22;8984;49.268;12.302;2023-08-30T06:42:26;17.70;99.90
17728;DHT22;8984;49.268;12.302;2023-08-30T06:44:53;17.70;99.90
17728;DHT22;8984;49.268;12.302;2023-08-30T06:47:20;17.80;99.90
17728;DHT22;8984;49.268;12.302;2023-08-30T06:49:48;17.90;99.90
17728;DHT22;8984;49.268;12.302;2023-08-30T06:52:15;17.90;99.90
17728;DHT22;8984;49.268;12.302;2023-08-30T06:54:42;17.70;99.90
17728;DHT22;8984;49.268;12.302;2023-08-30T06:57:09;17.80;99.90
17728;DHT22;8984;49.268;12.302;2023-08-30T06:59:36;17.80;99.90
17728;DHT22;8984;49.268;12.302;2023-08-30T07:02:03;17.80;99.90
17728;DHT22;8984;49.268;12.302;2023-08-30T07:04:30;17.80;99.90
17728;DHT22;8984;49.268;12.302;2023-08-30T07:06:58;17.80;99.90
17728;DHT22;8984;49.268;12.302;2023-08-30T07:09:25;17.90;99.90
17728;DHT22;8984;49.268;12.302;2023-08-30T07:11:54;17.90;99.90
17728;DHT22;8984;49.268;12.302;2023-08-30T07:14:21;18.00;99.90
17728;DHT22;8984;49.268;12.302;2023-08-30T07:16:48;18.00;99.90
17728;DHT22;8984;49.268;12.302;2023-08-30T07:19:15;18.10;99.90
17728;DHT22;8984;49.268;12.302;2023-08-30T07:21:42;18.10;99.90
17728;DHT22;8984;49.268;12.302;2023-08-30T07:24:11;18.20;99.90
17728;DHT22;8984;49.268;12.302;2023-08-30T07:26:38;18.10;99.90
17728;DHT22;8984;49.268;12.302;2023-08-30T07:29:05;18.10;99.90
17728;DHT22;8984;49.268;12.302;2023-08-30T07:31:32;18.30;99.90
17728;DHT22;8984;49.268;12.302;2023-08-30T07:33:59;18.20;99.90
17728;DHT22;8984;49.268;12.302;2023-08-30T07:36:26;18.20;99.90
17728;DHT22;8984;49.268;12.302;2023-08-30T07:38:53;18.30;99.90
17728;DHT22;8984;49.268;12.302;2023-08-30T07:41:22;18.30;99.90
17728;DHT22;8984;49.268;12.302;2023-08-30T07:43:48;18.40;99.90
17728;DHT22;8984;49.268;12.302;2023-08-30T07:46:15;18.40;99.90
17728;DHT22;8984;49.268;12.302;2023-08-30T07:48:42;18.50;99.90
17728;DHT22;8984;49.268;12.302;2023-08-30T07:51:09;18.50;99.90
17728;DHT22;8984;49.268;12.302;2023-08-30T07:53:35;18.60;99.90
17728;DHT22;8984;49.268;12.302;2023-08-30T07:56:02;18.70;99.90
17728;DHT22;8984;49.268;12.302;2023-08-30T07:58:31;18.80;99.90
17728;DHT22;8984;49.268;12.302;2023-08-30T08:00:57;18.80;99.90
17728;DHT22;8984;49.268;12.302;2023-08-30T08:03:25;18.90;99.90
17728;DHT22;8984;49.268;12.302;2023-08-30T08:05:52;19.00;99.90
17728;DHT22;8984;49.268;12.302;2023-08-30T08:08:18;19.00;99.90
17728;DHT22;8984;49.268;12.302;2023-08-30T08:10:45;19.10;99.90
17728;DHT22;8984;49.268;12.302;2023-08-30T08:13:12;19.20;99.90
17728;DHT22;8984;49.268;12.302;2023-08-30T08:15:40;19.30;99.90
17728;DHT22;8984;49.268;12.302;2023-08-30T08:18:07;19.30;99.90
17728;DHT22;8984;49.268;12.302;2023-08-30T08:20:34;19.30;99.90
17728;DHT22;8984;49.268;12.302;2023-08-30T08:23:02;19.50;99.90
17728;DHT22;8984;49.268;12.302;2023-08-30T08:25:29;19.80;99.90
17728;DHT22;8984;49.268;12.302;2023-08-30T08:27:56;19.70;99.90
17728;DHT22;8984;49.268;12.302;2023-08-30T08:30:23;19.60;99.90
17728;DHT22;8984;49.268;12.302;2023-08-30T08:32:51;19.80;99.90
17728;DHT22;8984;49.268;12.302;2023-08-30T08:35:18;20.00;99.90
17728;DHT22;8984;49.268;12.302;2023-08-30T08:37:44;20.20;99.90
17728;DHT22;8984;49.268;12.302;2023-08-30T08:40:11;20.50;99.90
17728;DHT22;8984;49.268;12.302;2023-08-30T08:42:38;20.80;99.90
17728;DHT22;8984;49.268;12.302;2023-08-30T08:45:07;21.10;99.90
17728;DHT22;8984;49.268;12.302;2023-08-30T08:47:36;21.40;99.90
17728;DHT22;8984;49.268;12.302;2023-08-30T08:50:06;21.80;99.90
17728;DHT22;8984;49.268;12.302;2023-08-30T08:52:33;22.00;99.90
17728;DHT22;8984;49.268;12.302;2023-08-30T08:55:00;22.10;99.90
17728;DHT22;8984;49.268;12.302;2023-08-30T08:57:29;22.20;99.90
17728;DHT22;8984;49.268;12.302;2023-08-30T08:59:57;22.30;99.90
17728;DHT22;8984;49.268;12.302;2023-08-30T09:02:24;22.50;99.90
17728;DHT22;8984;49.268;12.302;2023-08-30T09:04:52;22.60;99.90
17728;DHT22;8984;49.268;12.302;2023-08-30T09:07:21;22.60;99.90
17728;DHT22;8984;49.268;12.302;2023-08-30T09:09:48;22.60;99.90
17728;DHT22;8984;49.268;12.302;2023-08-30T09:12:15;22.60;99.90
17728;DHT22;8984;49.268;12.302;2023-08-30T09:14:52;22.90;99.90
17728;DHT22;8984;49.268;12.302;2023-08-30T09:17:19;23.20;99.90
17728;DHT22;8984;49.268;12.302;2023-08-30T09:19:45;23.40;99.90
17728;DHT22;8984;49.268;12.302;2023-08-30T09:22:12;23.40;99.90
17728;DHT22;8984;49.268;12.302;2023-08-30T09:24:41;23.40;99.90
17728;DHT22;8984;49.268;12.302;2023-08-30T09:27:08;23.50;99.90
17728;DHT22;8984;49.268;12.302;2023-08-30T09:29:34;23.60;99.90
17728;DHT22;8984;49.268;12.302;2023-08-30T09:32:01;23.60;99.90
17728;DHT22;8984;49.268;12.302;2023-08-30T09:34:28;23.70;99.90
17728;DHT22;8984;49.268;12.302;2023-08-30T09:36:55;23.80;99.90
17728;DHT22;8984;49.268;12.302;2023-08-30T09:39:24;24.00;99.90
17728;DHT22;8984;49.268;12.302;2023-08-30T09:41:54;23.90;99.90
17728;DHT22;8984;49.268;12.302;2023-08-30T09:44:21;23.70;99.90
17728;DHT22;8984;49.268;12.302;2023-08-30T09:46:50;23.50;99.90
17728;DHT22;8984;49.268;12.302;2023-08-30T09:49:19;23.60;99.90
17728;DHT22;8984;49.268;12.302;2023-08-30T09:51:47;23.90;99.90
17728;DHT22;8984;49.268;12.302;2023-08-30T09:54:16;23.90;99.90
17728;DHT22;8984;49.268;12.302;2023-08-30T09:56:43;24.00;99.90
17728;DHT22;8984;49.268;12.302;2023-08-30T09:59:12;24.10;99.90
17728;DHT22;8984;49.268;12.302;2023-08-30T10:01:40;24.10;99.90
17728;DHT22;8984;49.268;12.302;2023-08-30T10:04:08;24.00;99.90
17728;DHT22;8984;49.268;12.302;2023-08-30T10:06:35;24.10;99.90
17728;DHT22;8984;49.268;12.302;2023-08-30T10:09:03;23.90;99.90
17728;DHT22;8984;49.268;12.302;2023-08-30T10:11:33;23.90;99.90
17728;DHT22;8984;49.268;12.302;2023-08-30T10:14:00;24.00;99.90
17728;DHT22;8984;49.268;12.302;2023-08-30T10:16:40;23.70;99.90
17728;DHT22;8984;49.268;12.302;2023-08-30T10:19:14;23.70;99.90
17728;DHT22;8984;49.268;12.302;2023-08-30T10:21:43;23.50;99.90
17728;DHT22;8984;49.268;12.302;2023-08-30T10:24:12;23.40;99.90
17728;DHT22;8984;49.268;12.302;2023-08-30T10:26:41;23.30;99.90
17728;DHT22;8984;49.268;12.302;2023-08-30T10:29:10;23.40;99.90
17728;DHT22;8984;49.268;12.302;2023-08-30T10:31:39;23.50;99.90
17728;DHT22;8984;49.268;12.302;2023-08-30T10:34:13;23.50;99.90
17728;DHT22;8984;49.268;12.302;2023-08-30T10:36:42;23.50;99.90
17728;DHT22;8984;49.268;12.302;2023-08-30T10:39:12;23.20;99.90
17728;DHT22;8984;49.268;12.302;2023-08-30T10:41:54;23.10;99.90
17728;DHT22;8984;49.268;12.302;2023-08-30T10:44:22;23.10;99.90
17728;DHT22;8984;49.268;12.302;2023-08-30T10:46:53;23.00;99.90
17728;DHT22;8984;49.268;12.302;2023-08-30T10:49:20;22.90;99.90
17728;DHT22;8984;49.268;12.302;2023-08-30T10:51:55;23.10;99.90
17728;DHT22;8984;49.268;12.302;2023-08-30T10:54:22;23.10;99.90
17728;DHT22;8984;49.268;12.302;2023-08-30T10:56:54;22.90;99.90
17728;DHT22;8984;49.268;12.302;2023-08-30T10:59:22;22.70;99.90
17728;DHT22;8984;49.268;12.302;2023-08-30T11:01:51;22.80;99.90
17728;DHT22;8984;49.268;12.302;2023-08-30T11:04:20;22.40;99.90
17728;DHT22;8984;49.268;12.302;2023-08-30T11:06:49;22.60;99.90
17728;DHT22;8984;49.268;12.302;2023-08-30T11:09:18;22.70;99.90
17728;DHT22;8984;49.268;12.302;2023-08-30T11:11:45;22.80;99.90
17728;DHT22;8984;49.268;12.302;2023-08-30T11:14:13;22.90;99.90
17728;DHT22;8984;49.268;12.302;2023-08-30T11:16:40;23.10;99.90
17728;DHT22;8984;49.268;12.302;2023-08-30T11:19:08;23.20;99.90
17728;DHT22;8984;49.268;12.302;2023-08-30T11:21:37;23.30;99.90
17728;DHT22;8984;49.268;12.302;2023-08-30T11:24:05;23.60;99.90
17728;DHT22;8984;49.268;12.302;2023-08-30T11:26:32;23.60;99.90
17728;DHT22;8984;49.268;12.302;2023-08-30T11:29:04;23.60;99.90
17728;DHT22;8984;49.268;12.302;2023-08-30T11:31:31;23.60;99.90
17728;DHT22;8984;49.268;12.302;2023-08-30T11:33:59;23.70;99.90
17728;DHT22;8984;49.268;12.302;2023-08-30T11:36:27;23.80;99.90
17728;DHT22;8984;49.268;12.302;2023-08-30T11:38:56;23.70;99.90
17728;DHT22;8984;49.268;12.302;2023-08-30T11:41:24;23.60;99.90
17728;DHT22;8984;49.268;12.302;2023-08-30T11:43:52;23.60;99.90
17728;DHT22;8984;49.268;12.302;2023-08-30T11:46:19;23.50;99.90
17728;DHT22;8984;49.268;12.302;2023-08-30T11:48:48;23.60;99.90
17728;DHT22;8984;49.268;12.302;2023-08-30T11:51:16;23.60;99.90
17728;DHT22;8984;49.268;12.302;2023-08-30T11:53:44;23.60;99.90
17728;DHT22;8984;49.268;12.302;2023-08-30T11:56:13;23.50;99.90
17728;DHT22;8984;49.268;12.302;2023-08-30T11:58:40;23.40;99.90
17728;DHT22;8984;49.268;12.302;2023-08-30T12:01:07;23.10;99.90
17728;DHT22;8984;49.268;12.302;2023-08-30T12:03:34;23.10;99.90
17728;DHT22;8984;49.268;12.302;2023-08-30T12:06:01;23.00;99.90
17728;DHT22;8984;49.268;12.302;2023-08-30T12:08:30;23.00;99.90
17728;DHT22;8984;49.268;12.302;2023-08-30T12:10:57;22.90;99.90
17728;DHT22;8984;49.268;12.302;2023-08-30T12:13:27;22.70;99.90
17728;DHT22;8984;49.268;12.302;2023-08-30T12:15:55;22.70;99.90
17728;DHT22;8984;49.268;12.302;2023-08-30T12:18:23;22.40;99.90
17728;DHT22;8984;49.268;12.302;2023-08-30T12:20:53;22.40;99.90
17728;DHT22;8984;49.268;12.302;2023-08-30T12:23:21;22.30;99.90
17728;DHT22;8984;49.268;12.302;2023-08-30T12:26:06;22.00;99.90
17728;DHT22;8984;49.268;12.302;2023-08-30T12:28:36;22.10;99.90
17728;DHT22;8984;49.268;12.302;2023-08-30T12:31:03;21.80;99.90
17728;DHT22;8984;49.268;12.302;2023-08-30T12:33:31;21.90;99.90
17728;DHT22;8984;49.268;12.302;2023-08-30T12:35:58;22.00;99.90
17728;DHT22;8984;49.268;12.302;2023-08-30T12:38:25;22.10;99.90
17728;DHT22;8984;49.268;12.302;2023-08-30T12:40:53;22.20;99.90
17728;DHT22;8984;49.268;12.302;2023-08-30T12:43:21;22.30;99.90
17728;DHT22;8984;49.268;12.302;2023-08-30T12:45:50;22.20;99.90
17728;DHT22;8984;49.268;12.302;2023-08-30T12:48:17;22.50;99.90
17728;DHT22;8984;49.268;12.302;2023-08-30T12:50:46;22.70;99.90
17728;DHT22;8984;49.268;12.302;2023-08-30T12:53:14;23.00;99.90
17728;DHT22;8984;49.268;12.302;2023-08-30T12:55:42;23.20;99.90
17728;DHT22;8984;49.268;12.302;2023-08-30T12:58:09;23.40;99.90
17728;DHT22;8984;49.268;12.302;2023-08-30T13:00:37;23.30;99.90
17728;DHT22;8984;49.268;12.302;2023-08-30T13:03:05;23.50;99.90
17728;DHT22;8984;49.268;12.302;2023-08-30T13:05:32;23.60;99.90
17728;DHT22;8984;49.268;12.302;2023-08-30T13:08:00;23.80;99.90
17728;DHT22;8984;49.268;12.302;2023-08-30T13:10:27;24.00;99.90
17728;DHT22;8984;49.268;12.302;2023-08-30T13:12:54;24.10;99.90
17728;DHT22;8984;49.268;12.302;2023-08-30T13:15:21;24.10;99.90
17728;DHT22;8984;49.268;12.302;2023-08-30T13:17:47;24.20;99.90
17728;DHT22;8984;49.268;12.302;2023-08-30T13:20:16;24.20;99.90
17728;DHT22;8984;49.268;12.302;2023-08-30T13:22:43;24.30;99.90
17728;DHT22;8984;49.268;12.302;2023-08-30T13:25:09;24.40;99.90
17728;DHT22;8984;49.268;12.302;2023-08-30T13:27:36;24.40;99.90
17728;DHT22;8984;49.268;12.302;2023-08-30T13:30:04;24.10;99.90
17728;DHT22;8984;49.268;12.302;2023-08-30T13:32:31;24.20;99.90
17728;DHT22;8984;49.268;12.302;2023-08-30T13:34:59;24.20;99.90
17728;DHT22;8984;49.268;12.302;2023-08-30T13:37:27;24.20;99.90
17728;DHT22;8984;49.268;12.302;2023-08-30T13:39:53;24.20;99.90
17728;DHT22;8984;49.268;12.302;2023-08-30T13:42:20;24.30;99.90
17728;DHT22;8984;49.268;12.302;2023-08-30T13:44:50;24.30;99.90
17728;DHT22;8984;49.268;12.302;2023-08-30T13:47:17;24.20;99.90
17728;DHT22;8984;49.268;12.302;2023-08-30T13:49:44;24.00;99.90
17728;DHT22;8984;49.268;12.302;2023-08-30T13:52:11;23.90;99.90
17728;DHT22;8984;49.268;12.302;2023-08-30T13:54:39;23.80;99.90
17728;DHT22;8984;49.268;12.302;2023-08-30T13:57:06;23.70;99.90
17728;DHT22;8984;49.268;12.302;2023-08-30T13:59:33;23.60;99.90
17728;DHT22;8984;49.268;12.302;2023-08-30T14:02:02;23.60;99.90
17728;DHT22;8984;49.268;12.302;2023-08-30T14:04:29;23.50;99.90
17728;DHT22;8984;49.268;12.302;2023-08-30T14:06:58;23.50;99.90
17728;DHT22;8984;49.268;12.302;2023-08-30T14:09:24;23.40;99.90
17728;DHT22;8984;49.268;12.302;2023-08-30T14:11:53;23.10;99.90
17728;DHT22;8984;49.268;12.302;2023-08-30T14:14:20;23.00;99.90
17728;DHT22;8984;49.268;12.302;2023-08-30T14:16:47;23.00;99.90
17728;DHT22;8984;49.268;12.302;2023-08-30T14:19:15;23.00;99.90
17728;DHT22;8984;49.268;12.302;2023-08-30T14:21:48;22.80;99.90
17728;DHT22;8984;49.268;12.302;2023-08-30T14:24:15;22.80;99.90
17728;DHT22;8984;49.268;12.302;2023-08-30T14:26:41;22.80;99.90
17728;DHT22;8984;49.268;12.302;2023-08-30T14:29:09;22.70;99.90
17728;DHT22;8984;49.268;12.302;2023-08-30T14:31:36;22.70;99.90
17728;DHT22;8984;49.268;12.302;2023-08-30T14:34:03;22.70;99.90
17728;DHT22;8984;49.268;12.302;2023-08-30T14:36:30;22.60;99.90
17728;DHT22;8984;49.268;12.302;2023-08-30T14:38:57;22.60;99.90
17728;DHT22;8984;49.268;12.302;2023-08-30T14:41:24;22.80;99.90
17728;DHT22;8984;49.268;12.302;2023-08-30T14:43:51;22.80;99.90
17728;DHT22;8984;49.268;12.302;2023-08-30T14:46:19;22.80;99.90
17728;DHT22;8984;49.268;12.302;2023-08-30T14:48:46;22.70;99.90
17728;DHT22;8984;49.268;12.302;2023-08-30T14:51:13;22.70;99.90
17728;DHT22;8984;49.268;12.302;2023-08-30T14:53:40;22.80;99.90
17728;DHT22;8984;49.268;12.302;2023-08-30T14:56:07;22.70;99.90
17728;DHT22;8984;49.268;12.302;2023-08-30T14:58:35;22.80;99.90
17728;DHT22;8984;49.268;12.302;2023-08-30T15:01:02;22.80;99.90
17728;DHT22;8984;49.268;12.302;2023-08-30T15:03:30;22.80;99.90
17728;DHT22;8984;49.268;12.302;2023-08-30T15:05:57;22.70;99.90
17728;DHT22;8984;49.268;12.302;2023-08-30T15:08:24;22.80;99.90
17728;DHT22;8984;49.268;12.302;2023-08-30T15:10:51;22.60;99.90
17728;DHT22;8984;49.268;12.302;2023-08-30T15:13:18;22.50;99.90
17728;DHT22;8984;49.268;12.302;2023-08-30T15:15:45;22.30;99.90
17728;DHT22;8984;49.268;12.302;2023-08-30T15:18:12;22.30;99.90
17728;DHT22;8984;49.268;12.302;2023-08-30T15:20:40;22.30;99.90
17728;DHT22;8984;49.268;12.302;2023-08-30T15:23:12;22.10;99.90
17728;DHT22;8984;49.268;12.302;2023-08-30T15:25:43;22.10;99.90
17728;DHT22;8984;49.268;12.302;2023-08-30T15:28:11;22.10;99.90
17728;DHT22;8984;49.268;12.302;2023-08-30T15:30:37;21.90;99.90
17728;DHT22;8984;49.268;12.302;2023-08-30T15:33:08;21.90;99.90